Wetterdaten: aktuell Sonntag, 05.02.2023 05:30
Datum Zeit Temp. A. Feuchte A. Luftdruck Regen Wind Richtung Richtung Windben
05.02.2023 05:30 -2,6 C 71 % 1034,6 hPa 0,0 l/m 0,0 km/h NW 312 0,0 km/h
05.02.2023 05:25 -2,8 C 72 % 1034,6 hPa 0,0 l/m 0,0 km/h N-NW 338 0,0 km/h
05.02.2023 05:20 -2,7 C 72 % 1034,6 hPa 0,0 l/m 0,0 km/h N-NO 12 0,0 km/h
05.02.2023 05:15 -2,7 C 71 % 1034,4 hPa 0,0 l/m 0,0 km/h NO 46 0,0 km/h
05.02.2023 05:10 -2,6 C 71 % 1034,4 hPa 0,0 l/m 0,0 km/h NO 46 0,0 km/h
05.02.2023 05:05 -2,3 C 70 % 1034,4 hPa 0,0 l/m 0,0 km/h S-SW 208 0,0 km/h
05.02.2023 05:00 -2,3 C 69 % 1034,3 hPa 0,0 l/m 0,0 km/h S 169 0,0 km/h
05.02.2023 04:55 -2,2 C 69 % 1034,4 hPa 0,0 l/m 0,0 km/h NO 44 0,0 km/h
05.02.2023 04:50 -2,2 C 68 % 1034,3 hPa 0,0 l/m 0,0 km/h S-SW 206 0,0 km/h
05.02.2023 04:45 -2,0 C 69 % 1034,2 hPa 0,0 l/m 0,0 km/h SO 140 0,0 km/h
05.02.2023 04:40 -1,8 C 67 % 1034,3 hPa 0,0 l/m 0,0 km/h W 266 0,0 km/h
05.02.2023 04:35 -1,6 C 66 % 1034,3 hPa 0,0 l/m 0,0 km/h O-SO 104 0,0 km/h
05.02.2023 04:30 -2,0 C 66 % 1034,3 hPa 0,0 l/m 0,0 km/h N-NW 339 0,0 km/h
05.02.2023 04:25 -2,1 C 69 % 1034,2 hPa 0,0 l/m 0,0 km/h O-NO 73 0,0 km/h
05.02.2023 04:20 -2,2 C 69 % 1034,2 hPa 0,0 l/m 0,0 km/h NO 49 0,0 km/h
05.02.2023 04:15 -2,4 C 71 % 1034,1 hPa 0,0 l/m 0,0 km/h N-NW 344 0,0 km/h
05.02.2023 04:10 -2,5 C 72 % 1034,0 hPa 0,0 l/m 0,0 km/h O-NO 63 0,0 km/h
05.02.2023 04:05 -2,6 C 72 % 1034,2 hPa 0,0 l/m 0,0 km/h NW 308 0,0 km/h
05.02.2023 04:00 -2,4 C 71 % 1034,1 hPa 0,0 l/m 0,0 km/h NO 40 0,0 km/h
05.02.2023 03:55 -2,4 C 72 % 1034,1 hPa 0,0 l/m 0,0 km/h N-NO 23 0,0 km/h
05.02.2023 03:50 -2,3 C 71 % 1034,2 hPa 0,0 l/m 0,0 km/h N-NW 342 0,0 km/h
05.02.2023 03:45 -2,3 C 71 % 1034,1 hPa 0,0 l/m 0,0 km/h N-NW 342 0,0 km/h
05.02.2023 03:40 -2,3 C 71 % 1034,1 hPa 0,0 l/m 0,0 km/h N-NO 12 0,0 km/h
05.02.2023 03:35 -2,3 C 72 % 1034,1 hPa 0,0 l/m 0,0 km/h N-NO 17 0,0 km/h
05.02.2023 03:30 -2,3 C 71 % 1034,1 hPa 0,0 l/m 0,0 km/h N-NW 342 0,0 km/h
05.02.2023 03:25 -2,3 C 72 % 1034,1 hPa 0,0 l/m 0,0 km/h N 7 0,0 km/h
05.02.2023 03:20 -2,3 C 72 % 1034,0 hPa 0,0 l/m 0,0 km/h N-NW 327 0,0 km/h
05.02.2023 03:15 -2,3 C 71 % 1034,1 hPa 0,0 l/m 0,0 km/h N 2 0,0 km/h
05.02.2023 03:10 -2,1 C 71 % 1034,1 hPa 0,0 l/m 0,0 km/h W-NW 301 0,0 km/h
05.02.2023 03:05 -2,2 C 70 % 1034,1 hPa 0,0 l/m 0,0 km/h W-NW 301 0,0 km/h
05.02.2023 03:00 -2,0 C 71 % 1034,3 hPa 0,0 l/m 0,0 km/h NO 41 0,0 km/h
05.02.2023 02:55 -1,9 C 69 % 1034,3 hPa 0,0 l/m 0,0 km/h NW 305 0,0 km/h
05.02.2023 02:50 -2,1 C 70 % 1034,3 hPa 0,0 l/m 0,0 km/h N 355 0,0 km/h
05.02.2023 02:45 -2,0 C 71 % 1034,3 hPa 0,0 l/m 0,0 km/h NW 318 0,0 km/h
05.02.2023 02:40 -1,8 C 69 % 1034,4 hPa 0,0 l/m 0,0 km/h N-NO 12 0,0 km/h
05.02.2023 02:35 -1,8 C 68 % 1034,4 hPa 0,0 l/m 0,0 km/h NO 34 0,0 km/h
05.02.2023 02:30 -1,7 C 68 % 1034,3 hPa 0,0 l/m 0,0 km/h N 1 0,0 km/h
05.02.2023 02:25 -1,8 C 69 % 1034,3 hPa 0,0 l/m 0,0 km/h N-NW 335 0,0 km/h
05.02.2023 02:20 -1,8 C 69 % 1034,4 hPa 0,0 l/m 0,0 km/h N 352 0,0 km/h
05.02.2023 02:15 -1,8 C 69 % 1034,4 hPa 0,0 l/m 0,1 km/h N-NW 339 4,8 km/h
05.02.2023 02:10 -1,9 C 70 % 1034,4 hPa 0,0 l/m 0,0 km/h N 7 0,0 km/h
05.02.2023 02:05 -1,7 C 67 % 1034,4 hPa 0,0 l/m 0,0 km/h N 7 0,0 km/h
05.02.2023 02:00 -1,7 C 68 % 1034,4 hPa 0,0 l/m 0,0 km/h N 360 0,0 km/h
05.02.2023 01:55 -1,9 C 68 % 1034,4 hPa 0,0 l/m 0,0 km/h N-NO 12 0,0 km/h
05.02.2023 01:50 -1,9 C 69 % 1034,4 hPa 0,0 l/m 0,0 km/h N 358 0,0 km/h
05.02.2023 01:45 -1,6 C 66 % 1034,4 hPa 0,0 l/m 0,0 km/h N 360 0,0 km/h
05.02.2023 01:40 -1,3 C 65 % 1034,4 hPa 0,0 l/m 0,0 km/h N 353 0,0 km/h
05.02.2023 01:35 -1,1 C 64 % 1034,3 hPa 0,0 l/m 0,0 km/h N-NO 17 0,0 km/h
05.02.2023 01:30 -0,7 C 61 % 1034,2 hPa 0,0 l/m 0,0 km/h N-NW 347 0,0 km/h
05.02.2023 01:25 -0,6 C 59 % 1034,2 hPa 0,0 l/m 0,0 km/h N-NW 347 0,0 km/h
05.02.2023 01:20 -0,3 C 59 % 1034,1 hPa 0,0 l/m 0,0 km/h N-NW 341 0,0 km/h
05.02.2023 01:15 -0,2 C 58 % 1034,1 hPa 0,0 l/m 0,0 km/h N 350 0,0 km/h
05.02.2023 01:10 -0,6 C 58 % 1034,1 hPa 0,0 l/m 0,0 km/h N-NW 329 0,0 km/h
05.02.2023 01:05 -0,4 C 61 % 1034,1 hPa 0,0 l/m 0,0 km/h SO 129 0,0 km/h
05.02.2023 01:00 -0,2 C 58 % 1034,0 hPa 0,0 l/m 0,0 km/h W 266 0,0 km/h
05.02.2023 00:55 0,0 C 56 % 1033,9 hPa 0,0 l/m 0,0 km/h O-SO 120 0,0 km/h
05.02.2023 00:50 0,1 C 55 % 1034,0 hPa 0,0 l/m 0,0 km/h O-SO 115 1,6 km/h
05.02.2023 00:45 -0,1 C 58 % 1033,9 hPa 0,0 l/m 0,0 km/h S 179 0,0 km/h
05.02.2023 00:40 0,1 C 57 % 1033,9 hPa 0,0 l/m 0,0 km/h S 172 0,0 km/h
05.02.2023 00:35 0,1 C 56 % 1033,9 hPa 0,0 l/m 0,0 km/h S 191 0,0 km/h
05.02.2023 00:30 0,1 C 57 % 1033,8 hPa 0,0 l/m 0,0 km/h S-SO 152 0,0 km/h
05.02.2023 00:25 0,3 C 57 % 1033,8 hPa 0,0 l/m 0,0 km/h SO 132 0,0 km/h
05.02.2023 00:20 0,3 C 56 % 1033,8 hPa 0,0 l/m 0,0 km/h W 276 0,0 km/h
05.02.2023 00:15 0,5 C 56 % 1033,7 hPa 0,0 l/m 0,0 km/h NO 34 3,2 km/h
05.02.2023 00:10 0,6 C 54 % 1033,7 hPa 0,0 l/m 2,7 km/h N-NO 26 17,7 km/h
05.02.2023 00:05 0,6 C 54 % 1033,8 hPa 0,0 l/m 0,0 km/h NO 56 0,0 km/h
05.02.2023 00:00 0,7 C 53 % 1033,7 hPa 0,0 l/m 0,4 km/h W-SW 244 11,3 km/h
04.02.2023 23:55 0,8 C 54 % 1033,8 hPa 0,0 l/m 0,1 km/h N-NO 25 6,4 km/h
04.02.2023 23:50 0,9 C 53 % 1033,8 hPa 0,0 l/m 6,9 km/h W-NW 286 27,4 km/h
04.02.2023 23:45 0,9 C 53 % 1033,9 hPa 0,0 l/m 10,6 km/h N 7 17,7 km/h
04.02.2023 23:40 0,8 C 54 % 1033,9 hPa 0,0 l/m 15,9 km/h N 357 24,1 km/h
04.02.2023 23:35 0,9 C 55 % 1033,9 hPa 0,0 l/m 9,5 km/h N-NW 345 19,3 km/h
04.02.2023 23:30 1,1 C 53 % 1033,9 hPa 0,0 l/m 14,0 km/h NO 42 24,1 km/h
04.02.2023 23:25 1,0 C 53 % 1033,8 hPa 0,0 l/m 7,4 km/h NO 52 29,0 km/h
04.02.2023 23:20 0,9 C 54 % 1033,8 hPa 0,0 l/m 8,3 km/h W-NW 287 22,5 km/h
04.02.2023 23:15 0,9 C 55 % 1033,7 hPa 0,0 l/m 14,1 km/h N 349 30,6 km/h
04.02.2023 23:10 0,8 C 55 % 1033,8 hPa 0,0 l/m 4,3 km/h NW 323 25,7 km/h
04.02.2023 23:05 0,8 C 56 % 1033,8 hPa 0,0 l/m 6,2 km/h N-NW 333 38,6 km/h
04.02.2023 23:00 0,8 C 56 % 1033,6 hPa 0,0 l/m 3,2 km/h NO 40 19,3 km/h
04.02.2023 22:55 0,7 C 56 % 1033,6 hPa 0,0 l/m 2,5 km/h N-NW 333 17,7 km/h
04.02.2023 22:50 0,6 C 57 % 1033,6 hPa 0,0 l/m 0,1 km/h N 354 4,8 km/h
04.02.2023 22:45 0,6 C 58 % 1033,5 hPa 0,0 l/m 5,1 km/h N-NO 17 24,1 km/h
04.02.2023 22:40 0,5 C 59 % 1033,4 hPa 0,0 l/m 0,0 km/h NO 39 1,6 km/h
04.02.2023 22:35 0,7 C 58 % 1033,4 hPa 0,0 l/m 0,0 km/h N 354 1,6 km/h
04.02.2023 22:30 0,6 C 58 % 1033,4 hPa 0,0 l/m 7,5 km/h N-NW 348 20,9 km/h
04.02.2023 22:25 0,3 C 60 % 1033,4 hPa 0,0 l/m 0,8 km/h NW 314 12,9 km/h
04.02.2023 22:20 0,4 C 60 % 1033,4 hPa 0,0 l/m 4,7 km/h N 1 16,1 km/h
04.02.2023 22:15 0,4 C 61 % 1033,4 hPa 0,0 l/m 3,6 km/h N-NW 335 16,1 km/h
04.02.2023 22:10 0,3 C 61 % 1033,4 hPa 0,0 l/m 6,2 km/h N 354 17,7 km/h
04.02.2023 22:05 0,3 C 62 % 1033,5 hPa 0,0 l/m 0,0 km/h N 7 1,6 km/h
04.02.2023 22:00 0,3 C 63 % 1033,5 hPa 0,0 l/m 0,0 km/h N-NW 345 0,0 km/h
04.02.2023 21:55 0,5 C 61 % 1033,6 hPa 0,0 l/m 0,0 km/h N-NO 27 0,0 km/h
04.02.2023 21:50 0,7 C 60 % 1033,6 hPa 0,0 l/m 1,4 km/h N-NO 17 14,5 km/h
04.02.2023 21:45 0,6 C 60 % 1033,6 hPa 0,0 l/m 3,1 km/h N 358 17,7 km/h
04.02.2023 21:40 0,3 C 61 % 1033,5 hPa 0,0 l/m 0,1 km/h N-NO 12 8,0 km/h
04.02.2023 21:35 0,4 C 62 % 1033,5 hPa 0,0 l/m 0,0 km/h N 7 0,0 km/h
04.02.2023 21:30 0,7 C 59 % 1033,5 hPa 0,0 l/m 0,0 km/h N-NW 339 0,0 km/h
_ Min-Zeit 05:25 13:20 06:00 - 06:00 - - 06:00
Minimum _ -2,8 C 53 % 1019,9 hPa - 0,0 km/h - - 0,0 km/h
_ Max-Zeit 10:15 06:35 05:20 08:10 14:15 - - 14:15
Maximum _ 4,6 C 84 % 1034,6 hPa 0,6 l/m 37,4 km/h
N-NO
- - 64,4 km/h
N-NO
Durchschnitt _ 1,9 C 65 % 1029,1 hPa #3,2 l/m 8,1 km/h N - 17,1 km/h